createdAt,value
2022-10-09T00:00:21.649Z,57.48
2022-10-09T00:01:22.548Z,57.34
2022-10-09T00:01:35.373Z,57.55
2022-10-09T00:01:48.220Z,57.68
2022-10-09T00:02:01.515Z,57.56
2022-10-09T00:02:14.444Z,57.48
2022-10-09T00:02:27.398Z,57.54
2022-10-09T00:02:40.367Z,57.44
2022-10-09T00:02:53.236Z,57.51
2022-10-09T00:03:06.371Z,57.70
2022-10-09T00:03:39.818Z,57.71
2022-10-09T00:03:53.824Z,57.50
2022-10-09T00:04:07.088Z,57.54
2022-10-09T00:04:39.855Z,57.59
2022-10-09T00:05:12.628Z,57.62
2022-10-09T00:05:27.021Z,57.39
2022-10-09T00:05:40.083Z,57.43
2022-10-09T00:05:52.904Z,57.40
2022-10-09T00:06:06.465Z,57.42
2022-10-09T00:06:22.120Z,57.36
2022-10-09T00:06:34.985Z,57.27
2022-10-09T00:06:48.649Z,57.15
2022-10-09T00:07:01.468Z,57.33
2022-10-09T00:07:14.340Z,57.24
2022-10-09T00:07:27.519Z,57.12
2022-10-09T00:07:41.036Z,57.03
2022-10-09T00:08:13.772Z,57.05
2022-10-09T00:08:46.681Z,57.02
2022-10-09T00:09:01.897Z,57.28
2022-10-09T00:09:14.928Z,57.73
2022-10-09T00:09:29.961Z,57.70
2022-10-09T00:09:42.841Z,57.39
2022-10-09T00:09:56.116Z,57.42
2022-10-09T00:10:29.526Z,57.35
2022-10-09T00:10:43.167Z,57.05
2022-10-09T00:11:18.631Z,57.17
2022-10-09T00:11:32.807Z,57.74
2022-10-09T00:11:45.673Z,58.15
2022-10-09T00:11:58.474Z,58.08
2022-10-09T00:12:11.293Z,57.85
2022-10-09T00:12:24.104Z,57.53
2022-10-09T00:12:37.150Z,57.44
2022-10-09T00:12:50.315Z,57.32
2022-10-09T00:13:03.472Z,57.37
2022-10-09T00:13:16.761Z,57.75
2022-10-09T00:13:29.541Z,58.07
2022-10-09T00:13:42.646Z,58.24
2022-10-09T00:13:56.057Z,57.97
2022-10-09T00:14:08.861Z,58.08
2022-10-09T00:14:21.778Z,58.38
2022-10-09T00:14:34.577Z,58.30
2022-10-09T00:14:47.423Z,58.46
2022-10-09T00:15:00.245Z,58.69
2022-10-09T00:15:13.262Z,58.52
2022-10-09T00:15:26.159Z,58.33
2022-10-09T00:16:01.777Z,58.16
2022-10-09T00:16:34.632Z,58.00
2022-10-09T00:16:47.614Z,58.38
2022-10-09T00:17:00.621Z,58.41
2022-10-09T00:17:13.521Z,58.49
2022-10-09T00:17:26.333Z,58.48
2022-10-09T00:17:39.304Z,58.33
2022-10-09T00:18:14.044Z,58.58
2022-10-09T00:18:27.115Z,58.22
2022-10-09T00:18:39.963Z,58.37
2022-10-09T00:18:53.012Z,58.39
2022-10-09T00:19:06.361Z,58.25
2022-10-09T00:19:39.120Z,58.17
2022-10-09T00:19:51.930Z,58.29
2022-10-09T00:20:05.311Z,58.10
2022-10-09T00:20:41.823Z,58.14
2022-10-09T00:20:54.640Z,58.45
2022-10-09T00:21:17.300Z,58.57
2022-10-09T00:21:50.075Z,58.54
2022-10-09T00:22:02.979Z,58.70
2022-10-09T00:22:15.806Z,58.56
2022-10-09T00:22:29.009Z,58.65
2022-10-09T00:22:43.555Z,58.86
2022-10-09T00:23:17.496Z,58.75
2022-10-09T00:23:32.554Z,58.55
2022-10-09T00:23:45.433Z,58.81
2022-10-09T00:24:18.162Z,58.71
2022-10-09T00:24:31.121Z,58.38
2022-10-09T00:24:43.999Z,58.69
2022-10-09T00:24:56.865Z,58.76
2022-10-09T00:25:09.904Z,58.86
2022-10-09T00:25:22.865Z,58.41
2022-10-09T00:25:57.318Z,59.02
2022-10-09T00:26:11.918Z,60.31
2022-10-09T00:26:25.071Z,59.92
2022-10-09T00:26:37.882Z,59.55
2022-10-09T00:26:50.734Z,59.22
2022-10-09T00:27:03.691Z,59.62
2022-10-09T00:27:16.948Z,59.99
2022-10-09T00:27:29.854Z,59.94
2022-10-09T00:27:42.778Z,60.44
2022-10-09T00:27:57.701Z,60.77
2022-10-09T00:28:34.238Z,60.19
2022-10-09T00:28:50.197Z,60.37
2022-10-09T00:29:22.889Z,60.30
2022-10-09T00:29:36.084Z,60.23
2022-10-09T00:29:49.387Z,59.82
2022-10-09T00:30:02.344Z,59.72
2022-10-09T00:30:15.184Z,59.72
2022-10-09T00:30:28.018Z,59.37
2022-10-09T00:30:40.909Z,59.52
2022-10-09T00:31:15.613Z,59.50
2022-10-09T00:31:29.130Z,60.11
2022-10-09T00:32:01.873Z,59.81
2022-10-09T00:32:14.695Z,59.12
2022-10-09T00:32:27.527Z,59.84
2022-10-09T00:32:40.378Z,59.71
2022-10-09T00:32:53.384Z,59.46
2022-10-09T00:33:06.246Z,59.55
2022-10-09T00:33:39.235Z,59.41
2022-10-09T00:34:11.981Z,60.59
2022-10-09T00:34:24.786Z,60.33
2022-10-09T00:34:57.571Z,60.36
2022-10-09T00:35:10.421Z,59.74
2022-10-09T00:35:23.585Z,59.63
2022-10-09T00:35:38.951Z,59.52
2022-10-09T00:36:14.251Z,59.69
2022-10-09T00:36:27.583Z,59.07
2022-10-09T00:36:40.810Z,59.05
2022-10-09T00:36:54.202Z,58.83
2022-10-09T00:37:28.472Z,58.84
2022-10-09T00:37:41.308Z,59.14
2022-10-09T00:37:54.134Z,59.21
2022-10-09T00:38:07.176Z,59.22
2022-10-09T00:38:20.434Z,59.22
2022-10-09T00:38:33.594Z,59.39
2022-10-09T00:38:46.547Z,59.08
2022-10-09T00:38:59.448Z,58.93
2022-10-09T00:39:12.281Z,59.11
2022-10-09T00:39:25.099Z,58.94
2022-10-09T00:39:57.845Z,59.00
2022-10-09T00:40:10.803Z,58.80
2022-10-09T00:40:24.331Z,58.89
2022-10-09T00:40:37.472Z,58.64
2022-10-09T00:40:50.350Z,58.65
2022-10-09T00:41:03.199Z,58.54
2022-10-09T00:41:20.819Z,58.51
2022-10-09T00:41:34.561Z,58.56
2022-10-09T00:41:47.411Z,58.33
2022-10-09T00:42:01.573Z,58.51
2022-10-09T00:42:14.794Z,58.94
2022-10-09T00:42:27.697Z,58.59
2022-10-09T00:42:40.560Z,58.72
2022-10-09T00:42:57.592Z,58.24
2022-10-09T00:43:15.423Z,58.66
2022-10-09T00:43:50.948Z,58.98
2022-10-09T00:44:24.401Z,59.34
2022-10-09T00:44:54.365Z,59.41
2022-10-09T00:45:10.381Z,60.74
2022-10-09T00:45:49.868Z,60.70
2022-10-09T00:46:02.812Z,60.17
2022-10-09T00:46:37.268Z,59.83
2022-10-09T00:46:50.713Z,59.64
2022-10-09T00:47:03.537Z,59.70
2022-10-09T00:47:27.728Z,59.83
2022-10-09T00:48:23.651Z,59.82
2022-10-09T00:48:36.667Z,59.02
2022-10-09T00:49:15.216Z,59.23
2022-10-09T00:49:29.463Z,59.42
2022-10-09T00:50:06.065Z,59.35
2022-10-09T00:50:45.187Z,58.71
2022-10-09T00:50:58.535Z,59.43
2022-10-09T00:51:11.396Z,59.88
2022-10-09T00:51:44.931Z,60.27
2022-10-09T00:52:17.861Z,60.14
2022-10-09T00:52:55.165Z,59.83
2022-10-09T00:53:28.812Z,59.37
2022-10-09T00:53:41.645Z,59.90
2022-10-09T00:53:54.459Z,59.98
2022-10-09T00:54:29.016Z,59.62
2022-10-09T00:55:02.062Z,59.68
2022-10-09T00:55:35.139Z,59.70
2022-10-09T00:56:08.292Z,59.08
2022-10-09T00:56:21.305Z,59.00
2022-10-09T00:56:34.740Z,59.23
2022-10-09T00:57:08.799Z,59.55
2022-10-09T00:57:42.415Z,59.17
2022-10-09T00:57:56.114Z,59.55
2022-10-09T00:58:28.879Z,59.20
2022-10-09T00:58:41.900Z,59.31
2022-10-09T00:58:55.657Z,59.47
2022-10-09T00:59:28.587Z,59.53
2022-10-09T01:00:02.413Z,59.87
2022-10-09T01:00:19.321Z,61.14
2022-10-09T01:00:32.286Z,61.40
2022-10-09T01:00:45.328Z,61.42
2022-10-09T01:00:58.343Z,61.86
2022-10-09T01:01:11.337Z,61.93
2022-10-09T01:01:24.481Z,61.69
2022-10-09T01:01:38.892Z,61.84
2022-10-09T01:02:11.610Z,62.53
2022-10-09T01:02:24.545Z,62.41
2022-10-09T01:02:37.988Z,62.87
2022-10-09T01:03:10.671Z,63.00
2022-10-09T01:03:43.586Z,62.33
2022-10-09T01:04:16.592Z,62.10
2022-10-09T01:04:29.805Z,63.04
2022-10-09T01:04:42.879Z,62.33
2022-10-09T01:04:55.694Z,62.45
2022-10-09T01:05:09.140Z,62.81
2022-10-09T01:05:49.810Z,62.75
2022-10-09T01:06:29.631Z,63.15
2022-10-09T01:07:27.873Z,63.52
2022-10-09T01:08:08.519Z,63.16
2022-10-09T01:09:06.185Z,63.79
2022-10-09T01:09:57.444Z,64.12
2022-10-09T01:10:18.223Z,64.06
2022-10-09T01:10:50.425Z,63.81
2022-10-09T01:12:10.636Z,63.71
2022-10-09T01:13:01.516Z,64.44
2022-10-09T01:13:42.979Z,64.79
2022-10-09T01:14:19.237Z,64.41
2022-10-09T01:15:10.108Z,64.61
2022-10-09T01:15:48.434Z,64.46
2022-10-09T01:16:07.241Z,64.93
2022-10-09T01:16:44.615Z,64.64
2022-10-09T01:17:25.611Z,64.68
2022-10-09T01:17:40.516Z,64.60
2022-10-09T01:18:05.200Z,64.14
2022-10-09T01:18:20.378Z,64.56
2022-10-09T01:18:37.690Z,64.91
2022-10-09T01:19:07.022Z,64.97
2022-10-09T01:20:07.754Z,64.71
2022-10-09T01:21:03.233Z,64.16
2022-10-09T01:21:41.877Z,65.05
2022-10-09T01:22:32.605Z,64.67
2022-10-09T01:23:03.711Z,64.86
2022-10-09T01:23:49.203Z,65.17
2022-10-09T01:24:46.641Z,64.90
2022-10-09T01:25:08.471Z,64.58
2022-10-09T01:26:09.612Z,64.42
2022-10-09T01:28:15.945Z,64.15
2022-10-09T01:28:29.132Z,63.84
2022-10-09T01:28:43.844Z,63.95
2022-10-09T01:29:16.633Z,64.52
2022-10-09T01:29:33.832Z,64.63
2022-10-09T01:29:49.824Z,63.10
2022-10-09T01:30:08.078Z,64.36
2022-10-09T01:30:40.863Z,63.90
2022-10-09T01:30:53.809Z,64.56
2022-10-09T01:31:07.032Z,64.36
2022-10-09T01:31:20.017Z,64.56
2022-10-09T01:31:36.473Z,64.71
2022-10-09T01:32:09.542Z,64.62
2022-10-09T01:32:25.358Z,63.92
2022-10-09T01:32:40.056Z,64.18
2022-10-09T01:33:12.984Z,64.57
2022-10-09T01:33:27.215Z,65.04
2022-10-09T01:33:40.192Z,64.46
2022-10-09T01:33:53.643Z,64.38
2022-10-09T01:34:06.792Z,64.75
2022-10-09T01:34:39.790Z,64.79
2022-10-09T01:34:52.766Z,64.49
2022-10-09T01:35:06.529Z,63.94
2022-10-09T01:35:39.278Z,64.46
2022-10-09T01:36:12.176Z,64.59
2022-10-09T01:36:25.237Z,65.00
2022-10-09T01:36:38.247Z,64.92
2022-10-09T01:36:51.298Z,65.01
2022-10-09T01:37:04.989Z,65.05
2022-10-09T01:37:37.750Z,64.79
2022-10-09T01:38:10.496Z,64.90
2022-10-09T01:38:23.499Z,64.96
2022-10-09T01:38:58.822Z,64.84
2022-10-09T01:39:31.799Z,64.94
2022-10-09T01:40:05.382Z,65.28
2022-10-09T01:40:18.416Z,65.04
2022-10-09T01:40:52.651Z,65.04
2022-10-09T01:41:05.810Z,65.26
2022-10-09T01:41:38.739Z,65.06
2022-10-09T01:42:12.756Z,65.22
2022-10-09T01:42:26.354Z,65.28
2022-10-09T01:42:59.333Z,64.98
2022-10-09T01:43:32.274Z,65.02
2022-10-09T01:43:45.299Z,65.19
2022-10-09T01:44:28.266Z,65.43
2022-10-09T01:44:41.246Z,65.16
2022-10-09T01:45:15.416Z,65.05
2022-10-09T01:45:40.100Z,65.09
2022-10-09T01:46:20.243Z,64.32
2022-10-09T01:46:33.597Z,65.16
2022-10-09T01:47:06.553Z,65.25
2022-10-09T01:47:20.872Z,65.06
2022-10-09T01:47:33.912Z,64.78
2022-10-09T01:47:47.037Z,64.51
2022-10-09T01:48:25.301Z,65.04
2022-10-09T01:49:32.599Z,65.15
2022-10-09T01:50:06.148Z,64.90
2022-10-09T01:50:42.657Z,64.57
2022-10-09T01:50:58.369Z,65.24
2022-10-09T01:51:38.764Z,65.29
2022-10-09T01:52:06.876Z,65.33
2022-10-09T01:52:47.700Z,65.01
2022-10-09T01:53:20.262Z,65.10
2022-10-09T01:53:33.739Z,65.15
2022-10-09T01:53:46.745Z,65.18
2022-10-09T01:54:01.403Z,65.14
2022-10-09T01:54:14.382Z,64.92
2022-10-09T01:54:50.210Z,65.02
2022-10-09T01:55:18.108Z,64.95
2022-10-09T01:56:00.488Z,64.88
2022-10-09T01:56:15.020Z,65.17
2022-10-09T01:56:27.801Z,65.18
2022-10-09T02:07:12.063Z,65.11
2022-10-09T02:07:45.858Z,65.11
2022-10-09T02:07:58.934Z,65.60
2022-10-09T02:08:12.749Z,65.48
2022-10-09T02:08:50.351Z,65.53
2022-10-09T02:09:06.357Z,65.53
2022-10-09T02:09:19.277Z,65.35
2022-10-09T02:09:32.149Z,65.38
2022-10-09T02:09:45.000Z,65.39
2022-10-09T02:09:58.345Z,65.41
2022-10-09T02:10:32.171Z,65.56
2022-10-09T02:10:45.640Z,65.24
2022-10-09T02:10:59.045Z,65.10
2022-10-09T02:11:14.797Z,65.30
2022-10-09T02:11:29.356Z,64.80
2022-10-09T02:11:42.653Z,64.63
2022-10-09T02:11:56.230Z,65.10
2022-10-09T02:12:09.961Z,65.50
2022-10-09T02:12:23.020Z,65.07
2022-10-09T02:12:38.720Z,64.99
2022-10-09T02:13:11.487Z,65.36
2022-10-09T02:13:24.408Z,65.33
2022-10-09T02:13:37.777Z,65.56
2022-10-09T02:13:52.916Z,65.63
2022-10-09T02:14:25.674Z,65.28
2022-10-09T02:14:39.494Z,65.30
2022-10-09T02:14:52.337Z,65.28
2022-10-09T02:16:09.534Z,65.62
2022-10-09T02:16:48.615Z,65.41
2022-10-09T02:17:18.413Z,65.01
2022-10-09T02:17:33.234Z,65.01
2022-10-09T02:17:48.509Z,65.14
2022-10-09T02:18:32.276Z,64.69
2022-10-09T02:18:47.009Z,64.98
2022-10-09T02:19:01.542Z,65.14
2022-10-09T02:19:44.352Z,64.99
2022-10-09T02:20:09.082Z,65.15
2022-10-09T02:20:45.713Z,65.01
2022-10-09T02:21:00.661Z,64.70
2022-10-09T02:21:24.851Z,64.94
2022-10-09T02:22:03.565Z,64.92
2022-10-09T02:22:36.324Z,64.42
2022-10-09T02:22:49.380Z,64.88
2022-10-09T02:23:03.601Z,64.91
2022-10-09T02:23:16.905Z,64.79
2022-10-09T02:23:29.948Z,64.64
2022-10-09T02:23:43.129Z,64.29
2022-10-09T02:23:57.224Z,64.68
2022-10-09T02:24:12.672Z,64.98
2022-10-09T02:24:25.518Z,65.21
2022-10-09T02:24:39.480Z,65.21
2022-10-09T02:24:52.784Z,65.29
2022-10-09T02:25:06.623Z,65.24
2022-10-09T02:25:19.483Z,65.16
2022-10-09T02:25:32.345Z,64.92
2022-10-09T02:25:45.208Z,64.80
2022-10-09T02:25:57.996Z,64.67
2022-10-09T02:26:10.849Z,64.91
2022-10-09T02:26:23.691Z,64.79
2022-10-09T02:26:57.501Z,64.33
2022-10-09T02:27:11.517Z,64.65
2022-10-09T02:27:24.785Z,64.86
2022-10-09T02:27:38.127Z,64.80
2022-10-09T02:27:50.968Z,64.76
2022-10-09T02:28:05.581Z,64.65
2022-10-09T02:28:18.526Z,64.56
2022-10-09T02:28:31.964Z,64.86
2022-10-09T02:28:46.077Z,64.79
2022-10-09T02:28:59.351Z,64.71
2022-10-09T02:29:14.486Z,64.59
2022-10-09T02:29:27.442Z,64.61
2022-10-09T02:29:41.253Z,64.78
2022-10-09T02:29:54.208Z,64.78
2022-10-09T02:30:07.905Z,64.81
2022-10-09T02:30:20.746Z,64.94
2022-10-09T02:30:56.466Z,64.98
2022-10-09T02:31:30.393Z,64.56
2022-10-09T02:31:43.413Z,64.75
2022-10-09T02:31:56.243Z,65.09
2022-10-09T02:32:11.648Z,65.15
2022-10-09T02:32:24.514Z,65.02
2022-10-09T02:32:37.396Z,64.84
2022-10-09T02:32:53.651Z,64.85
2022-10-09T02:33:06.524Z,64.81
2022-10-09T02:33:19.486Z,64.68
2022-10-09T02:33:33.201Z,64.55
2022-10-09T02:33:46.094Z,64.68
2022-10-09T02:34:03.768Z,64.68
2022-10-09T02:34:17.984Z,64.62
2022-10-09T02:34:30.811Z,64.56
2022-10-09T02:34:43.852Z,64.66
2022-10-09T02:34:56.780Z,64.62
2022-10-09T02:35:09.771Z,64.67
2022-10-09T02:35:22.644Z,64.74
2022-10-09T02:35:35.731Z,64.68
2022-10-09T02:36:07.772Z,64.55
2022-10-09T02:36:20.861Z,64.51
2022-10-09T02:36:33.793Z,64.45
2022-10-09T02:36:46.997Z,64.41
2022-10-09T02:36:59.875Z,64.40
2022-10-09T02:37:13.161Z,64.62
2022-10-09T02:37:26.000Z,64.38
2022-10-09T02:37:38.831Z,64.55
2022-10-09T02:37:51.635Z,64.42
2022-10-09T02:38:04.536Z,64.33
2022-10-09T02:38:35.991Z,64.21
2022-10-09T02:38:48.850Z,64.30
2022-10-09T02:39:21.577Z,64.59
2022-10-09T02:39:34.938Z,64.25
2022-10-09T02:40:10.703Z,64.21
2022-10-09T02:40:40.930Z,64.03
2022-10-09T02:40:57.623Z,64.35
2022-10-09T02:41:10.450Z,64.33
2022-10-09T02:41:23.504Z,64.30
2022-10-09T02:41:36.325Z,64.18
2022-10-09T02:41:49.233Z,64.13
2022-10-09T02:42:02.977Z,64.05
2022-10-09T02:42:16.324Z,64.14
2022-10-09T02:42:29.287Z,64.10
2022-10-09T02:42:42.135Z,64.24
2022-10-09T02:42:55.363Z,64.23
2022-10-09T02:43:08.363Z,64.04
2022-10-09T02:43:21.155Z,64.11
2022-10-09T02:43:34.420Z,64.11
2022-10-09T02:43:47.295Z,64.26
2022-10-09T02:44:00.217Z,64.22
2022-10-09T02:44:33.013Z,64.23
2022-10-09T02:44:45.856Z,64.06
2022-10-09T02:45:18.590Z,64.24
2022-10-09T02:45:51.374Z,64.07
2022-10-09T02:46:04.729Z,63.98
2022-10-09T02:46:17.750Z,64.03
2022-10-09T02:46:30.709Z,63.78
2022-10-09T02:46:43.852Z,63.89
2022-10-09T02:46:57.161Z,63.93
2022-10-09T02:47:10.875Z,64.03
2022-10-09T02:47:23.663Z,63.69
2022-10-09T02:47:36.934Z,63.73
2022-10-09T02:48:10.130Z,63.60
2022-10-09T02:48:22.940Z,63.60
2022-10-09T02:48:35.740Z,63.61
2022-10-09T02:48:49.296Z,63.60
2022-10-09T02:49:02.207Z,63.68
2022-10-09T02:49:15.508Z,63.56
2022-10-09T02:49:48.741Z,63.39
2022-10-09T02:50:01.536Z,63.25
2022-10-09T02:50:35.435Z,63.54
2022-10-09T02:50:48.516Z,63.42
2022-10-09T02:51:21.379Z,63.54
2022-10-09T02:51:34.482Z,63.71
2022-10-09T02:51:47.576Z,63.47
2022-10-09T02:52:00.596Z,63.52
2022-10-09T02:52:13.452Z,63.62
2022-10-09T02:52:26.252Z,63.63
2022-10-09T02:52:39.080Z,63.60
2022-10-09T02:52:52.026Z,63.59
2022-10-09T02:53:04.897Z,63.89
2022-10-09T02:53:17.734Z,63.63
2022-10-09T02:53:54.753Z,63.64
2022-10-09T02:54:09.101Z,63.27
2022-10-09T02:54:21.904Z,63.50
2022-10-09T02:54:54.644Z,63.51
2022-10-09T02:55:08.299Z,63.20
2022-10-09T02:55:21.108Z,63.28
2022-10-09T02:55:53.862Z,63.33
2022-10-09T02:56:06.679Z,63.48
2022-10-09T02:56:20.317Z,63.38
2022-10-09T02:56:37.957Z,63.34
2022-10-09T02:56:51.693Z,63.23
2022-10-09T02:57:04.585Z,63.06
2022-10-09T02:57:17.426Z,63.34
2022-10-09T02:57:30.724Z,63.31
2022-10-09T02:57:43.572Z,63.29
2022-10-09T02:58:16.396Z,63.21
2022-10-09T02:58:32.707Z,62.87
2022-10-09T02:58:45.786Z,62.77
2022-10-09T02:58:59.054Z,63.10
2022-10-09T02:59:11.899Z,63.01
2022-10-09T02:59:24.826Z,63.17
2022-10-09T02:59:37.647Z,63.25
2022-10-09T02:59:50.499Z,63.16
2022-10-09T03:00:23.280Z,63.27
2022-10-09T03:00:37.969Z,63.38
2022-10-09T03:00:51.892Z,63.25
2022-10-09T03:01:05.110Z,63.26
2022-10-09T03:01:18.208Z,63.19
2022-10-09T03:01:31.097Z,63.14
2022-10-09T03:01:44.098Z,62.91
2022-10-09T03:02:16.243Z,63.08
2022-10-09T03:02:29.211Z,63.00
2022-10-09T03:02:42.478Z,62.96
2022-10-09T03:02:57.450Z,63.14
2022-10-09T03:03:10.527Z,62.95
2022-10-09T03:03:23.349Z,63.02
2022-10-09T03:03:56.075Z,63.05
2022-10-09T03:04:08.917Z,63.06
2022-10-09T03:04:22.194Z,62.97
2022-10-09T03:04:36.737Z,62.87
2022-10-09T03:05:09.225Z,62.94
2022-10-09T03:05:22.044Z,63.15
2022-10-09T03:05:35.076Z,63.06
2022-10-09T03:05:48.033Z,63.23
2022-10-09T03:06:23.370Z,63.29
2022-10-09T03:06:56.099Z,63.06
2022-10-09T03:07:08.934Z,63.02
2022-10-09T03:07:22.659Z,63.00
2022-10-09T03:07:56.308Z,62.98
2022-10-09T03:08:09.122Z,62.97
2022-10-09T03:08:21.920Z,62.90
2022-10-09T03:08:34.954Z,62.75
2022-10-09T03:08:48.658Z,62.76
2022-10-09T03:09:01.645Z,62.75
2022-10-09T03:09:14.477Z,62.71
2022-10-09T03:09:47.208Z,62.81
2022-10-09T03:10:00.137Z,62.80
2022-10-09T03:10:32.854Z,62.94
2022-10-09T03:10:46.212Z,63.22
2022-10-09T03:10:59.257Z,63.34
2022-10-09T03:11:32.884Z,63.62
2022-10-09T03:12:28.611Z,63.44
2022-10-09T03:12:41.452Z,62.97
2022-10-09T03:12:54.457Z,63.13
2022-10-09T03:13:07.313Z,63.21
2022-10-09T03:13:21.113Z,63.07
2022-10-09T03:13:34.011Z,63.26
2022-10-09T03:13:46.919Z,63.11
2022-10-09T03:13:59.790Z,62.91
2022-10-09T03:14:13.026Z,63.04
2022-10-09T03:14:25.867Z,63.16
2022-10-09T03:14:38.724Z,63.08
2022-10-09T03:14:51.558Z,63.33
2022-10-09T03:15:04.630Z,63.30
2022-10-09T03:15:17.647Z,63.31
2022-10-09T03:15:33.653Z,63.23
2022-10-09T03:15:46.511Z,62.99
2022-10-09T03:16:04.357Z,63.02
2022-10-09T03:16:22.140Z,63.26
2022-10-09T03:16:35.101Z,63.26
2022-10-09T03:16:50.827Z,63.41
2022-10-09T03:17:04.087Z,63.29
2022-10-09T03:17:16.913Z,63.17
2022-10-09T03:17:29.787Z,63.23
2022-10-09T03:17:42.649Z,63.24
2022-10-09T03:17:55.464Z,63.35
2022-10-09T03:18:28.204Z,63.23
2022-10-09T03:18:41.065Z,63.33
2022-10-09T03:18:53.905Z,63.50
2022-10-09T03:19:07.277Z,63.45
2022-10-09T03:19:20.082Z,63.51
2022-10-09T03:19:32.910Z,63.52
2022-10-09T03:19:45.723Z,63.39
2022-10-09T03:19:58.637Z,63.22
2022-10-09T03:20:11.869Z,63.30
2022-10-09T03:20:24.720Z,63.35
2022-10-09T03:20:57.524Z,63.26
2022-10-09T03:21:12.255Z,63.32
2022-10-09T03:21:26.453Z,63.41
2022-10-09T03:21:39.288Z,63.56
2022-10-09T03:21:52.112Z,63.58
2022-10-09T03:22:05.070Z,63.53
2022-10-09T03:22:17.943Z,63.44
2022-10-09T03:22:30.833Z,63.58
2022-10-09T03:22:43.925Z,63.46
2022-10-09T03:22:57.241Z,63.42
2022-10-09T03:23:10.231Z,63.32
2022-10-09T03:23:43.082Z,63.33
2022-10-09T03:23:56.079Z,63.21
2022-10-09T03:24:09.702Z,63.25
2022-10-09T03:24:22.571Z,63.45
2022-10-09T03:24:35.417Z,63.50
2022-10-09T03:25:08.266Z,63.58
2022-10-09T03:25:21.211Z,63.57
2022-10-09T03:25:34.037Z,63.56
2022-10-09T03:25:55.992Z,63.44
2022-10-09T03:26:13.756Z,63.52
2022-10-09T03:26:27.119Z,63.67
2022-10-09T03:26:59.859Z,63.56
2022-10-09T03:27:32.602Z,63.12
2022-10-09T03:27:45.445Z,63.24
2022-10-09T03:27:58.312Z,63.69
2022-10-09T03:28:11.361Z,63.63
2022-10-09T03:28:47.532Z,63.30
2022-10-09T03:29:00.412Z,63.38
2022-10-09T03:29:13.251Z,63.25
2022-10-09T03:29:46.246Z,63.38
2022-10-09T03:30:18.991Z,63.49
2022-10-09T03:30:52.463Z,63.57
2022-10-09T03:31:05.471Z,63.51
2022-10-09T03:31:49.929Z,63.52
2022-10-09T03:31:53.705Z,63.41
2022-10-09T03:32:06.936Z,63.32
2022-10-09T03:32:40.217Z,63.47
2022-10-09T03:32:53.084Z,63.26
2022-10-09T03:33:25.809Z,63.33
2022-10-09T03:33:38.630Z,63.09
2022-10-09T03:33:51.656Z,63.04
2022-10-09T03:34:04.529Z,62.94
2022-10-09T03:34:37.274Z,62.87
2022-10-09T03:34:50.128Z,63.18
2022-10-09T03:35:03.007Z,62.78
2022-10-09T03:35:35.826Z,63.03
2022-10-09T03:35:49.181Z,63.20
2022-10-09T03:36:02.024Z,63.16
2022-10-09T03:36:15.342Z,63.17
2022-10-09T03:36:48.068Z,63.09
2022-10-09T03:37:00.968Z,63.10
2022-10-09T03:37:33.706Z,63.09
2022-10-09T03:37:46.523Z,63.10
2022-10-09T03:38:19.286Z,62.91
2022-10-09T03:38:32.113Z,62.82
2022-10-09T03:39:05.405Z,62.67
2022-10-09T03:39:18.435Z,62.61
2022-10-09T03:39:31.636Z,62.83
2022-10-09T03:40:05.177Z,62.81
2022-10-09T03:40:18.405Z,62.79
2022-10-09T03:40:31.576Z,62.83
2022-10-09T03:52:49.896Z,64.02
2022-10-09T03:53:03.170Z,64.02
2022-10-09T03:53:36.068Z,64.12
2022-10-09T03:54:09.045Z,64.13
2022-10-09T03:54:21.884Z,64.08
2022-10-09T03:54:34.946Z,64.01
2022-10-09T03:55:08.389Z,64.11
2022-10-09T03:55:41.407Z,64.24
2022-10-09T03:55:55.378Z,64.29
2022-10-09T03:56:08.346Z,64.25
2022-10-09T03:57:11.172Z,64.18
2022-10-09T03:57:24.212Z,64.15
2022-10-09T03:57:37.523Z,64.19
2022-10-09T03:58:10.567Z,64.22
2022-10-09T03:58:23.611Z,64.10
2022-10-09T03:58:36.573Z,64.10
2022-10-09T03:59:10.109Z,64.01
2022-10-09T03:59:23.312Z,63.94
2022-10-09T03:59:56.235Z,63.88
2022-10-09T04:00:10.668Z,63.88
2022-10-09T04:00:23.893Z,63.95
2022-10-09T04:00:36.750Z,63.96
2022-10-09T04:00:52.972Z,64.07
2022-10-09T04:01:05.870Z,63.96
2022-10-09T04:01:19.237Z,63.86
2022-10-09T04:01:32.640Z,63.97
2022-10-09T04:01:45.642Z,64.03
2022-10-09T04:01:58.535Z,63.95
2022-10-09T04:02:50.095Z,64.07
2022-10-09T04:03:03.305Z,63.81
2022-10-09T04:03:16.322Z,63.83
2022-10-09T04:03:29.364Z,63.77
2022-10-09T04:04:02.376Z,63.70
2022-10-09T04:04:15.819Z,63.58
2022-10-09T04:04:48.580Z,63.59
2022-10-09T04:05:01.546Z,63.68
2022-10-09T04:05:35.063Z,63.67
2022-10-09T04:05:48.114Z,63.51
2022-10-09T04:06:01.211Z,63.49
2022-10-09T04:06:33.994Z,63.56
2022-10-09T04:06:46.873Z,63.85
2022-10-09T04:06:59.949Z,63.88
2022-10-09T04:07:13.717Z,63.83
2022-10-09T04:07:27.069Z,63.68
2022-10-09T04:07:40.532Z,63.58
2022-10-09T04:07:53.422Z,63.33
2022-10-09T04:08:26.682Z,63.26
2022-10-09T04:08:40.060Z,62.66
2022-10-09T04:08:53.100Z,62.54
2022-10-09T04:09:06.206Z,62.40
2022-10-09T04:09:19.228Z,62.21
2022-10-09T04:09:32.138Z,62.13
2022-10-09T04:09:45.542Z,62.48
2022-10-09T04:09:58.416Z,62.44
2022-10-09T04:10:12.410Z,62.63
2022-10-09T04:10:25.333Z,62.65
2022-10-09T04:10:59.143Z,62.56
2022-10-09T04:11:32.087Z,62.45
2022-10-09T04:12:04.895Z,62.88
2022-10-09T04:12:37.851Z,62.66
2022-10-09T04:12:51.196Z,62.85
2022-10-09T04:13:24.762Z,62.90
2022-10-09T04:13:58.530Z,63.16
2022-10-09T04:14:31.439Z,63.04
2022-10-09T04:15:04.961Z,63.18
2022-10-09T04:15:18.047Z,63.38
2022-10-09T04:15:53.681Z,63.40
2022-10-09T04:16:06.735Z,63.44
2022-10-09T04:16:39.458Z,63.41
2022-10-09T04:16:52.420Z,63.26
2022-10-09T04:17:05.272Z,63.41
2022-10-09T04:17:18.744Z,63.45
2022-10-09T04:17:52.147Z,63.55
2022-10-09T04:18:25.235Z,63.67
2022-10-09T04:18:41.797Z,63.65
2022-10-09T04:19:15.018Z,63.68
2022-10-09T04:19:47.755Z,63.43
2022-10-09T04:20:00.912Z,63.29
2022-10-09T04:20:14.231Z,63.23
2022-10-09T04:20:27.089Z,63.16
2022-10-09T04:20:51.058Z,63.14
2022-10-09T04:21:24.917Z,63.34
2022-10-09T04:21:37.940Z,63.12
2022-10-09T04:21:51.135Z,62.77
2022-10-09T04:22:04.110Z,62.47
2022-10-09T04:22:36.874Z,62.53
2022-10-09T04:22:50.322Z,62.57
2022-10-09T04:23:03.580Z,62.70
2022-10-09T04:23:16.500Z,62.73
2022-10-09T04:23:29.326Z,62.64
2022-10-09T04:24:03.663Z,63.20
2022-10-09T04:24:36.396Z,63.10
2022-10-09T04:24:49.246Z,63.18
2022-10-09T04:25:02.468Z,63.26
2022-10-09T04:25:35.221Z,63.36
2022-10-09T04:25:48.049Z,63.47
2022-10-09T04:26:01.136Z,63.47
2022-10-09T04:26:13.995Z,63.72
2022-10-09T04:26:27.298Z,63.76
2022-10-09T04:26:42.102Z,63.77
2022-10-09T04:26:54.999Z,63.82
2022-10-09T04:27:07.875Z,64.03
2022-10-09T04:27:20.693Z,63.81
2022-10-09T04:27:33.495Z,63.80
2022-10-09T04:27:46.331Z,63.88
2022-10-09T04:28:19.131Z,63.71
2022-10-09T04:28:32.079Z,63.59
2022-10-09T04:28:48.853Z,63.44
2022-10-09T04:29:01.703Z,63.45
2022-10-09T04:29:14.754Z,63.53
2022-10-09T04:29:27.569Z,63.72
2022-10-09T04:29:40.398Z,63.59
2022-10-09T04:29:53.308Z,63.55
2022-10-09T04:30:06.643Z,63.45
2022-10-09T04:30:19.817Z,63.51
2022-10-09T04:30:32.684Z,63.35
2022-10-09T04:30:45.977Z,63.27
2022-10-09T04:30:58.948Z,63.17
2022-10-09T04:31:11.832Z,63.13
2022-10-09T04:31:24.729Z,62.80
2022-10-09T04:31:57.532Z,63.25
2022-10-09T04:32:10.357Z,63.07
2022-10-09T04:32:23.175Z,62.95
2022-10-09T04:32:36.098Z,62.98
2022-10-09T04:32:49.207Z,63.45
2022-10-09T04:33:02.277Z,63.40
2022-10-09T04:33:15.556Z,63.47
2022-10-09T04:33:28.497Z,63.45
2022-10-09T04:34:01.243Z,63.52
2022-10-09T04:34:14.387Z,63.40
2022-10-09T04:34:27.221Z,63.39
2022-10-09T04:34:59.961Z,63.41
2022-10-09T04:35:12.789Z,63.63
2022-10-09T04:35:25.632Z,63.50
2022-10-09T04:35:42.580Z,63.64
2022-10-09T04:35:55.421Z,63.47
2022-10-09T04:36:08.317Z,63.59
2022-10-09T04:36:21.486Z,63.60
2022-10-09T04:36:34.281Z,63.59
2022-10-09T04:36:47.166Z,63.56
2022-10-09T04:36:59.994Z,63.65
2022-10-09T04:37:32.803Z,63.62
2022-10-09T04:38:28.269Z,64.12
2022-10-09T04:38:41.595Z,64.18
2022-10-09T04:38:54.552Z,64.16
2022-10-09T04:39:07.360Z,63.98
2022-10-09T04:39:20.249Z,63.77
2022-10-09T04:39:33.166Z,63.72
2022-10-09T04:40:06.271Z,63.79